This is the latest recevied weather packets stored in our database for station/object SV9FBP-13. If no packets are shown the sender has not sent any weather packets the latest 10 day(s).
| Time | Temp. | Humidity | Pressure | Rain* | Wind** | Luminosity | Snow |
|---|---|---|---|---|---|---|---|
| 1788421911 | 33.33° C | 25% | 1007.7 hPa | 0 mm | - | - | - |
| 1788421005 | 32.78° C | 26% | 1007.7 hPa | 0 mm | - | - | - |
| 1788420104 | 32.78° C | 26% | 1007.8 hPa | 0 mm | - | - | - |
| 1788419202 | 32.78° C | 26% | 1007.8 hPa | 0 mm | - | - | - |
| 1788418299 | 32.78° C | 28% | 1007.6 hPa | 0 mm | - | - | - |
| 1788417397 | 31.67° C | 32% | 1007.6 hPa | 0 mm | - | - | - |
| 1788416495 | 31.67° C | 32% | 1007.6 hPa | 0 mm | - | - | - |
| 1788415593 | 32.22° C | 31% | 1007.7 hPa | 0 mm | - | - | - |
| 1788414691 | 32.22° C | 30% | 1007.8 hPa | 0 mm | - | - | - |
| 1788413788 | 32.22° C | 30% | 1007.7 hPa | 0 mm | - | - | - |
| 1788412887 | 30.56° C | 31% | 1007.9 hPa | 0 mm | - | - | - |
| 1788411984 | 29.44° C | 31% | 1007.8 hPa | 0 mm | - | - | - |
| 1788411083 | 28.89° C | 32% | 1007.8 hPa | 0 mm | - | - | - |
| 1788410180 | 29.44° C | 32% | 1007.9 hPa | 0 mm | - | - | - |
| 1788409278 | 28.33° C | 32% | 1007.8 hPa | 0 mm | - | - | - |
| 1788408375 | 27.22° C | 38% | 1007.6 hPa | 0 mm | - | - | - |
| 1788407473 | 27.22° C | 40% | 1007.6 hPa | 0 mm | - | - | - |
| 1788406571 | 27.22° C | 41% | 1007.5 hPa | 0 mm | - | - | - |
| 1788405669 | 27.22° C | 41% | 1007.5 hPa | 0 mm | - | - | - |
| 1788404767 | 26.67° C | 41% | 1007.5 hPa | 0 mm | - | - | - |
| 1788403865 | 26.67° C | 41% | 1007.5 hPa | 0 mm | - | - | - |
| 1788402963 | 26.67° C | 41% | 1007.6 hPa | 0 mm | - | - | - |
| 1788402060 | 26.67° C | 40% | 1007.7 hPa | 0 mm | - | - | - |
| 1788401159 | 26.67° C | 40% | 1007.8 hPa | 0 mm | - | - | - |
| 1788400256 | 26.67° C | 41% | 1007.8 hPa | 0 mm | - | - | - |
* Rain latest hour (hover to see other rain measurements)
** Current wind speed in m/s (hover to see current wind gust speed)